Airfield :
LOGIN :

Register | Disclaimer

   EN    FR    IT 

 










Legend :    VFR   Marginal VFR   IFR   Intensive IFR   Very Intensive IFR
Visi :
Ceiling :
>= 8 km
>= 3000ft
5 to 8 km
1000 to 3000 ft
1500m to 5 km
500 to 1000 ft
800 to 1500m
200 to 500 ft
< 800m
< 200 ft
Symbols :   Thunderstorms  Fog  Heavy snow  Heavy precipitations  Wind > 20 kt
SIGMETs :     Misc.  Thunderstorms  Icing  Turbulence  Mountain Waves  Volcanic Ashes







- Airport Elevation : 19 ft
- IATA code : LCY
- Download approach charts


EGLC - London City

CURRENT METAR :
  • 261250Z AUTO 07019KT 9999 NCD 14/05 Q1024

EXPIRED METARs :
  • 261220Z AUTO 09017KT 9999 NCD 14/06 Q1024
  • 261150Z AUTO 07016KT 9999 NCD 13/06 Q1024
  • 261120Z AUTO 08018KT 9999 NCD 13/06 Q1024
  • 261050Z AUTO 08016KT 9999 NCD 13/05 Q1024
  • 261020Z AUTO 08015KT 9999 NCD 12/05 Q1025
  • 260950Z AUTO 08015KT 9999 NCD 12/06 Q1025

TAF TAF EGLC
Valid from the 26 at 12:00 until the 26 at 21:00 UTC


261105Z 2612/2621 06012KT CAVOK
ATIS : +44 20 7646 0224
No reported NOTAMs for that airfield.



MET'MAP, your aeronautical weather chart ! - Copyright ORBIFLY December 2007 - Disclaimer

ORBIFLY MET'MAP TEAM :

Programming & Development : Alexandra Zaïnal
Concept & Development : Baudouin d'Aumeries
Co-Development & Prog : Marc-Olivier Méhu
Technical & hardware support : Manuel Goepfert

Contact : metmap@orbifly.com




SOURCES & CREDITS :

   NOAA